Hauptseite
METAR-TAF:

METAR-TAF

Flughäfen :

Flughafen Le Havre

Le Havre, Frankreich

Breite: 49-31N, Länge: 000-04E, Höhe: 100 m

Beobachtung

Neuester Wetterbericht von vor 36 Minuten, um 19:00 UTC
Wind 2 kt aus Ost/Nordost
Temperatur 17°C
Luftfeuchtigkeit 39%
Luftdruck 1020 hPa
Sichtweite 10 km oder mehr
keine Wolken unter 1500 m und keine Kumulonimbus oder Gewitterwolken

METAR: LFOH 221900Z AUTO 07002KT CAVOK 17/03 Q1020

Zeit: 21:36 (19:36 UTC)

Prognose

Neuester Wetterbericht von vor 8 Stunden und 36 Minuten, um 11:00 UTC
Gültige Prognose vom 22 um 12 UTC bis 23 um 12 UTC
Wind 6 kt aus West/Nordwest
Sichtweite 10 km oder mehr
keine Wolken unter 1500 m und keine Kumulonimbus oder Gewitterwolken

TAF: LFOH 221100Z 2212/2312 30006KT CAVOK

Wetterbeobachtungen und Prognosen von mehr als 4000 Flughäfen (METAR und TAF Bericht).

Die verfügbaren Stationen werden durch gelbe und rote Markierungen auf der Karte dargestellt.

Führen Sie die Maus auf sie, um den Namen der Station zu sehen.

Darauf klicken, um die Beobachtung von Wetterbeobachtungen und Prognosen zu sehen.

Um die Karte zu ändern : klicken Sie auf den grünen Tasten mit einem schwarzen Kreuz Zum Vergrößern, auf den grünen Button mit einem Gedankenstrich zu verkleinern, oder auf die grünen Pfeile für benachbarte Karten.


METAR-TAF: